createdAt,value
2016-11-23T00:00:08.469Z,91.30
2016-11-23T00:01:07.919Z,90.43
2016-11-23T00:02:08.908Z,89.65
2016-11-23T00:03:12.968Z,90.48
2016-11-23T00:04:07.744Z,89.68
2016-11-23T00:05:08.301Z,89.84
2016-11-23T00:06:08.847Z,89.97
2016-11-23T00:07:08.542Z,89.72
2016-11-23T00:08:08.392Z,91.84
2016-11-23T00:09:07.994Z,90.91
2016-11-23T00:10:07.632Z,92.01
2016-11-23T00:11:08.225Z,91.23
2016-11-23T00:12:07.964Z,90.74
2016-11-23T00:13:07.496Z,91.86
2016-11-23T00:14:07.986Z,91.70
2016-11-23T00:15:07.469Z,90.23
2016-11-23T00:16:08.046Z,90.02
2016-11-23T00:17:07.597Z,89.88
2016-11-23T00:18:08.040Z,90.92
2016-11-23T00:19:07.541Z,90.72
2016-11-23T00:20:08.029Z,90.50
2016-11-23T00:21:07.657Z,90.88
2016-11-23T00:22:08.512Z,90.80
2016-11-23T00:23:08.060Z,92.11
2016-11-23T00:24:07.568Z,91.21
2016-11-23T00:25:08.256Z,91.30
2016-11-23T00:26:07.818Z,90.94
2016-11-23T00:27:08.294Z,90.82
2016-11-23T00:28:08.004Z,90.58
2016-11-23T00:29:07.498Z,90.22
2016-11-23T00:30:07.999Z,90.69
2016-11-23T00:31:07.573Z,91.91
2016-11-23T00:32:08.313Z,92.28
2016-11-23T00:33:08.019Z,91.94
2016-11-23T00:34:07.731Z,91.41
2016-11-23T00:35:08.194Z,91.17
2016-11-23T00:36:07.721Z,90.33
2016-11-23T00:37:08.552Z,89.73
2016-11-23T00:38:08.066Z,89.85
2016-11-23T00:39:07.654Z,90.09
2016-11-23T00:40:08.219Z,89.46
2016-11-23T00:41:07.823Z,89.39
2016-11-23T00:42:08.549Z,89.47
2016-11-23T00:43:08.293Z,88.73
2016-11-23T00:44:07.972Z,88.93
2016-11-23T00:45:07.710Z,89.15
2016-11-23T00:46:08.518Z,90.21
2016-11-23T00:47:08.346Z,89.74
2016-11-23T00:48:07.872Z,89.32
2016-11-23T00:49:08.348Z,91.42
2016-11-23T00:50:07.828Z,91.80
2016-11-23T00:51:08.585Z,90.80
2016-11-23T00:52:08.610Z,90.73
2016-11-23T00:53:07.551Z,91.43
2016-11-23T00:54:08.053Z,91.28
2016-11-23T00:55:07.538Z,91.80
2016-11-23T00:56:08.459Z,91.31
2016-11-23T00:57:07.992Z,90.76
2016-11-23T00:58:07.637Z,90.01
2016-11-23T00:59:08.271Z,90.54
2016-11-23T01:00:08.134Z,90.66
2016-11-23T01:01:07.574Z,90.14
2016-11-23T01:02:08.053Z,90.05
2016-11-23T01:03:07.605Z,89.60
2016-11-23T01:04:08.498Z,89.76
2016-11-23T01:05:08.053Z,89.68
2016-11-23T01:06:07.562Z,90.49
2016-11-23T01:07:08.107Z,90.72
2016-11-23T01:08:07.836Z,90.13
2016-11-23T01:09:08.431Z,90.38
2016-11-23T01:10:08.080Z,89.74
2016-11-23T01:11:07.577Z,89.21
2016-11-23T01:12:08.073Z,89.53
2016-11-23T01:13:07.649Z,89.06
2016-11-23T01:14:08.174Z,89.26
2016-11-23T01:15:07.693Z,90.76
2016-11-23T01:16:08.182Z,89.92
2016-11-23T01:17:07.938Z,89.33
2016-11-23T01:18:07.627Z,89.29
2016-11-23T01:19:08.130Z,90.38
2016-11-23T01:20:07.630Z,90.28
2016-11-23T01:21:08.150Z,89.40
2016-11-23T01:22:07.727Z,89.55
2016-11-23T01:23:08.266Z,89.85
2016-11-23T01:24:07.755Z,89.30
2016-11-23T01:25:08.280Z,89.12
2016-11-23T01:26:07.763Z,89.83
2016-11-23T01:27:08.402Z,91.09
2016-11-23T01:28:08.180Z,92.22
2016-11-23T01:29:07.747Z,91.27
2016-11-23T01:30:08.547Z,91.07
2016-11-23T01:31:08.089Z,91.18
2016-11-23T01:32:08.539Z,92.36
2016-11-23T01:33:08.030Z,90.84
2016-11-23T01:34:08.294Z,90.48
2016-11-23T01:35:08.156Z,89.63
2016-11-23T01:36:07.667Z,90.94
2016-11-23T01:37:08.291Z,90.87
2016-11-23T01:38:07.852Z,91.71
2016-11-23T01:39:08.389Z,90.93
2016-11-23T01:40:07.888Z,90.50
2016-11-23T01:41:08.454Z,90.73
2016-11-23T01:42:08.142Z,90.61
2016-11-23T01:43:07.718Z,90.30
2016-11-23T01:44:08.408Z,90.28
2016-11-23T01:45:07.881Z,90.36
2016-11-23T01:46:08.331Z,90.28
2016-11-23T01:47:08.283Z,89.68
2016-11-23T01:48:08.978Z,89.31
2016-11-23T01:49:08.965Z,89.84
2016-11-23T01:50:07.466Z,90.70
2016-11-23T01:51:07.963Z,91.32
2016-11-23T01:52:07.640Z,90.98
2016-11-23T01:53:08.333Z,90.87
2016-11-23T01:54:07.904Z,90.61
2016-11-23T01:55:08.492Z,90.23
2016-11-23T01:56:07.978Z,89.68
2016-11-23T01:57:07.460Z,90.47
2016-11-23T01:58:08.132Z,90.59
2016-11-23T01:59:07.591Z,90.22
2016-11-23T02:00:08.208Z,90.25
2016-11-23T02:01:07.860Z,90.73
2016-11-23T02:02:08.451Z,90.10
2016-11-23T02:03:08.291Z,90.25
2016-11-23T02:04:08.029Z,89.95
2016-11-23T02:05:07.540Z,90.48
2016-11-23T02:06:08.036Z,90.73
2016-11-23T02:07:07.583Z,90.91
2016-11-23T02:08:08.199Z,91.30
2016-11-23T02:09:07.653Z,90.84
2016-11-23T02:10:08.306Z,90.19
2016-11-23T02:11:07.792Z,90.11
2016-11-23T02:12:08.380Z,89.78
2016-11-23T02:13:08.226Z,90.06
2016-11-23T02:14:07.689Z,89.20
2016-11-23T02:15:08.241Z,89.43
2016-11-23T02:16:07.703Z,89.40
2016-11-23T02:17:08.297Z,89.13
2016-11-23T02:18:08.394Z,88.79
2016-11-23T02:19:07.586Z,89.35
2016-11-23T02:20:08.066Z,90.40
2016-11-23T02:21:07.576Z,89.73
2016-11-23T02:22:08.367Z,90.63
2016-11-23T02:23:07.993Z,90.12
2016-11-23T02:24:07.572Z,90.04
2016-11-23T02:25:08.309Z,89.57
2016-11-23T02:26:07.778Z,89.98
2016-11-23T02:27:08.275Z,89.32
2016-11-23T02:28:07.974Z,88.83
2016-11-23T02:29:07.584Z,89.51
2016-11-23T02:30:08.112Z,89.61
2016-11-23T02:31:08.095Z,89.69
2016-11-23T02:32:07.781Z,89.92
2016-11-23T02:33:08.382Z,90.03
2016-11-23T02:34:07.950Z,89.15
2016-11-23T02:35:07.779Z,89.12
2016-11-23T02:36:08.424Z,90.68
2016-11-23T02:37:07.955Z,90.37
2016-11-23T02:38:07.682Z,89.72
2016-11-23T02:39:08.131Z,89.93
2016-11-23T02:40:08.008Z,90.39
2016-11-23T02:41:07.486Z,91.22
2016-11-23T02:42:08.093Z,91.23
2016-11-23T02:43:07.839Z,90.49
2016-11-23T02:44:08.488Z,90.62
2016-11-23T02:45:08.004Z,90.18
2016-11-23T02:46:07.506Z,90.11
2016-11-23T02:47:08.042Z,90.14
2016-11-23T02:48:07.667Z,91.93
2016-11-23T02:49:08.451Z,91.07
2016-11-23T02:50:08.162Z,91.22
2016-11-23T02:51:07.751Z,90.71
2016-11-23T02:52:08.687Z,91.73
2016-11-23T02:53:08.614Z,91.34
2016-11-23T02:54:08.045Z,91.70
2016-11-23T02:55:07.628Z,90.80
2016-11-23T02:56:08.292Z,90.61
2016-11-23T02:57:07.768Z,90.10
2016-11-23T02:58:08.538Z,90.12
2016-11-23T02:59:08.035Z,89.55
2016-11-23T03:00:07.604Z,90.07
2016-11-23T03:01:08.113Z,89.69
2016-11-23T03:02:07.598Z,90.96
2016-11-23T03:03:08.444Z,91.39
2016-11-23T03:04:08.170Z,91.72
2016-11-23T03:05:07.667Z,92.13
2016-11-23T03:06:08.256Z,91.64
2016-11-23T03:07:08.082Z,90.64
2016-11-23T03:08:07.874Z,90.30
2016-11-23T03:09:08.978Z,90.39
2016-11-23T03:10:07.668Z,89.89
2016-11-23T03:11:08.214Z,90.45
2016-11-23T03:12:07.860Z,91.56
2016-11-23T03:13:08.804Z,91.27
2016-11-23T03:14:08.333Z,90.98
2016-11-23T03:15:07.803Z,90.48
2016-11-23T03:16:08.491Z,91.51
2016-11-23T03:17:08.220Z,90.96
2016-11-23T03:18:07.879Z,90.94
2016-11-23T03:19:08.487Z,91.58
2016-11-23T03:20:08.035Z,91.33
2016-11-23T03:21:07.641Z,91.69
2016-11-23T03:22:08.187Z,92.59
2016-11-23T03:23:07.783Z,92.65
2016-11-23T03:24:08.514Z,92.20
2016-11-23T03:25:08.242Z,91.98
2016-11-23T03:26:07.969Z,91.49
2016-11-23T03:27:07.469Z,91.70
2016-11-23T03:28:07.729Z,91.68
2016-11-23T03:29:08.409Z,92.07
2016-11-23T03:30:07.914Z,91.40
2016-11-23T03:31:08.487Z,91.11
2016-11-23T03:32:08.218Z,89.86
2016-11-23T03:33:07.799Z,89.73
2016-11-23T03:34:08.377Z,89.51
2016-11-23T03:35:08.131Z,89.40
2016-11-23T03:36:07.653Z,89.36
2016-11-23T03:37:07.647Z,89.47
2016-11-23T03:38:08.429Z,90.06
2016-11-23T03:39:07.868Z,90.11
2016-11-23T03:40:08.009Z,90.06
2016-11-23T03:41:07.586Z,88.93
2016-11-23T03:42:08.081Z,89.73
2016-11-23T03:43:07.567Z,89.95
2016-11-23T03:44:08.147Z,89.93
2016-11-23T03:45:07.732Z,90.52
2016-11-23T03:46:08.226Z,90.19
2016-11-23T03:47:07.767Z,89.72
2016-11-23T03:48:08.632Z,90.80
2016-11-23T03:49:08.064Z,90.56
2016-11-23T03:50:07.776Z,90.20
2016-11-23T03:51:07.833Z,90.77
2016-11-23T03:52:08.409Z,91.20
2016-11-23T03:53:07.997Z,91.92
2016-11-23T03:54:07.485Z,92.00
2016-11-23T03:55:07.995Z,91.22
2016-11-23T03:56:07.640Z,91.08
2016-11-23T03:57:08.390Z,90.81
2016-11-23T03:58:08.274Z,90.18
2016-11-23T03:59:07.971Z,90.97
2016-11-23T04:00:07.872Z,90.96
2016-11-23T04:01:08.448Z,92.68
2016-11-23T04:02:07.910Z,92.97
2016-11-23T04:03:07.658Z,92.24
2016-11-23T04:04:08.130Z,91.37
2016-11-23T04:05:07.638Z,90.23
2016-11-23T04:06:08.120Z,90.18
2016-11-23T04:07:07.963Z,90.34
2016-11-23T04:08:07.998Z,90.84
2016-11-23T04:09:07.592Z,90.35
2016-11-23T04:10:08.116Z,90.12
2016-11-23T04:11:07.561Z,89.84
2016-11-23T04:12:08.082Z,88.91
2016-11-23T04:13:07.650Z,89.32
2016-11-23T04:14:08.157Z,89.42
2016-11-23T04:15:07.717Z,89.75
2016-11-23T04:16:08.213Z,91.75
2016-11-23T04:17:07.813Z,91.91
2016-11-23T04:18:08.335Z,91.41
2016-11-23T04:19:07.820Z,91.03
2016-11-23T04:20:08.424Z,90.79
2016-11-23T04:21:07.941Z,90.60
2016-11-23T04:22:07.655Z,91.78
2016-11-23T04:23:08.459Z,91.06
2016-11-23T04:24:08.195Z,90.37
2016-11-23T04:25:07.641Z,91.69
2016-11-23T04:26:08.248Z,91.37
2016-11-23T04:27:07.854Z,91.05
2016-11-23T04:28:08.571Z,90.62
2016-11-23T04:29:08.129Z,91.32
2016-11-23T04:30:07.677Z,90.92
2016-11-23T04:31:08.257Z,90.39
2016-11-23T04:32:07.800Z,90.11
2016-11-23T04:33:08.323Z,91.03
2016-11-23T04:34:07.851Z,91.14
2016-11-23T04:35:07.991Z,91.37
2016-11-23T04:36:07.552Z,92.71
2016-11-23T04:37:08.162Z,91.73
2016-11-23T04:38:07.653Z,91.54
2016-11-23T04:39:08.459Z,90.85
2016-11-23T04:40:07.952Z,90.94
2016-11-23T04:41:07.502Z,90.88
2016-11-23T04:42:07.965Z,90.27
2016-11-23T04:43:07.384Z,90.73
2016-11-23T04:44:07.924Z,91.33
2016-11-23T04:45:08.599Z,90.57
2016-11-23T04:46:08.142Z,90.23
2016-11-23T04:47:07.678Z,90.29
2016-11-23T04:48:07.959Z,89.82
2016-11-23T04:49:08.130Z,90.52
2016-11-23T04:50:07.611Z,90.44
2016-11-23T04:51:08.290Z,89.92
2016-11-23T04:52:07.840Z,90.49
2016-11-23T04:53:08.343Z,89.92
2016-11-23T04:54:07.868Z,89.64
2016-11-23T04:55:08.765Z,90.56
2016-11-23T04:56:08.754Z,90.03
2016-11-23T04:57:08.364Z,90.16
2016-11-23T04:58:08.207Z,89.66
2016-11-23T04:59:14.386Z,90.56
2016-11-23T05:00:08.013Z,90.73
2016-11-23T05:01:07.504Z,90.74
2016-11-23T05:02:08.324Z,90.34
2016-11-23T05:03:07.928Z,89.62
2016-11-23T05:04:08.430Z,89.58
2016-11-23T05:05:08.030Z,89.53
2016-11-23T05:06:07.661Z,89.95
2016-11-23T05:07:08.199Z,90.82
2016-11-23T05:08:07.740Z,89.95
2016-11-23T05:09:08.276Z,90.40
2016-11-23T05:10:07.791Z,90.52
2016-11-23T05:11:08.280Z,90.14
2016-11-23T05:12:08.004Z,90.90
2016-11-23T05:13:07.596Z,90.43
2016-11-23T05:14:08.140Z,90.17
2016-11-23T05:15:07.889Z,90.20
2016-11-23T05:16:08.812Z,91.07
2016-11-23T05:17:08.579Z,91.86
2016-11-23T05:18:08.395Z,91.76
2016-11-23T05:19:08.287Z,91.25
2016-11-23T05:20:07.854Z,91.80
2016-11-23T05:21:08.432Z,91.86
2016-11-23T05:22:08.183Z,92.33
2016-11-23T05:23:07.766Z,91.41
2016-11-23T05:24:08.342Z,90.58
2016-11-23T05:25:10.655Z,90.00
2016-11-23T05:26:08.382Z,89.90
2016-11-23T05:27:07.872Z,89.24
2016-11-23T05:28:08.632Z,90.98
2016-11-23T05:29:08.154Z,91.12
2016-11-23T05:30:07.832Z,90.06
2016-11-23T05:31:08.315Z,90.70
2016-11-23T05:32:07.785Z,90.60
2016-11-23T05:33:08.377Z,90.15
2016-11-23T05:34:08.607Z,89.27
2016-11-23T05:35:08.165Z,88.79
2016-11-23T05:36:07.975Z,89.02
2016-11-23T05:37:07.745Z,88.93
2016-11-23T05:38:08.278Z,88.35
2016-11-23T05:39:07.856Z,88.71
2016-11-23T05:40:08.373Z,89.82
2016-11-23T05:41:07.947Z,91.07
2016-11-23T05:42:07.467Z,91.07
2016-11-23T05:43:07.987Z,91.07
2016-11-23T05:44:07.818Z,89.82
2016-11-23T05:45:08.708Z,89.95
2016-11-23T05:46:08.166Z,89.80
2016-11-23T05:47:08.127Z,90.44
2016-11-23T05:48:07.602Z,89.73
2016-11-23T05:49:08.167Z,89.78
2016-11-23T05:50:08.020Z,89.52
2016-11-23T05:51:07.566Z,89.19
2016-11-23T05:52:08.745Z,88.84
2016-11-23T05:53:08.265Z,89.39
2016-11-23T05:54:08.091Z,89.43
2016-11-23T05:55:07.665Z,89.26
2016-11-23T05:56:08.425Z,89.60
2016-11-23T05:57:08.260Z,90.10
2016-11-23T05:58:07.945Z,89.19
2016-11-23T05:59:07.520Z,88.96
2016-11-23T06:00:08.226Z,89.71
2016-11-23T06:01:07.674Z,89.93
2016-11-23T06:02:07.706Z,89.65
2016-11-23T06:03:08.237Z,89.51
2016-11-23T06:04:08.025Z,89.85
2016-11-23T06:05:07.502Z,90.15
2016-11-23T06:06:08.273Z,89.60
2016-11-23T06:07:07.920Z,89.51
2016-11-23T06:08:08.480Z,89.33
2016-11-23T06:09:07.714Z,89.38
2016-11-23T06:10:08.206Z,90.01
2016-11-23T06:11:07.796Z,89.82
2016-11-23T06:12:08.285Z,88.85
2016-11-23T06:13:07.781Z,88.91
2016-11-23T06:14:08.404Z,89.49
2016-11-23T06:15:07.919Z,88.39
2016-11-23T06:16:08.563Z,87.86
2016-11-23T06:17:08.507Z,88.24
2016-11-23T06:18:08.030Z,89.22
2016-11-23T06:19:07.613Z,88.22
2016-11-23T06:20:08.355Z,88.54
2016-11-23T06:21:08.315Z,89.12
2016-11-23T06:22:08.462Z,88.92
2016-11-23T06:23:07.968Z,88.79
2016-11-23T06:24:07.584Z,90.06
2016-11-23T06:25:08.063Z,91.62
2016-11-23T06:26:07.655Z,90.98
2016-11-23T06:27:08.208Z,90.03
2016-11-23T06:28:08.685Z,90.92
2016-11-23T06:29:08.250Z,90.56
2016-11-23T06:30:08.218Z,90.39
2016-11-23T06:31:08.220Z,90.47
2016-11-23T06:32:08.053Z,89.56
2016-11-23T06:33:07.625Z,90.32
2016-11-23T06:34:08.194Z,91.34
2016-11-23T06:35:07.731Z,91.22
2016-11-23T06:36:08.233Z,92.30
2016-11-23T06:37:07.775Z,91.19
2016-11-23T06:38:08.261Z,91.77
2016-11-23T06:39:08.731Z,90.98
2016-11-23T06:40:07.639Z,90.45
2016-11-23T06:41:08.182Z,90.10
2016-11-23T06:42:07.887Z,89.98
2016-11-23T06:43:08.576Z,90.44
2016-11-23T06:44:08.162Z,89.45
2016-11-23T06:45:07.513Z,90.20
2016-11-23T06:46:08.097Z,89.91
2016-11-23T06:47:07.677Z,89.02
2016-11-23T06:48:08.246Z,88.51
2016-11-23T06:49:08.116Z,88.98
2016-11-23T06:50:08.239Z,88.52
2016-11-23T06:51:07.731Z,88.85
2016-11-23T06:52:08.300Z,89.27
2016-11-23T06:53:08.165Z,89.65
2016-11-23T06:54:07.683Z,89.95
2016-11-23T06:55:08.502Z,89.64
2016-11-23T06:56:07.958Z,89.32
2016-11-23T06:57:07.461Z,89.69
2016-11-23T06:58:08.175Z,90.17
2016-11-23T06:59:07.751Z,90.38
2016-11-23T07:00:08.289Z,89.66
2016-11-23T07:01:07.955Z,88.93
2016-11-23T07:02:07.606Z,88.84
2016-11-23T07:03:08.293Z,88.33
2016-11-23T07:04:07.851Z,88.44
2016-11-23T07:05:08.720Z,88.81
2016-11-23T07:06:08.571Z,89.13
2016-11-23T07:07:08.213Z,88.58
2016-11-23T07:08:07.723Z,88.24
2016-11-23T07:09:08.519Z,88.52
2016-11-23T07:10:08.123Z,88.76
2016-11-23T07:11:07.764Z,89.34
2016-11-23T07:12:07.463Z,89.34
2016-11-23T07:13:08.043Z,89.33
2016-11-23T07:14:07.635Z,89.24
2016-11-23T07:15:08.525Z,88.71
2016-11-23T07:16:07.962Z,88.61
2016-11-23T07:17:07.581Z,88.59
2016-11-23T07:18:08.171Z,88.80
2016-11-23T07:19:07.722Z,88.61
2016-11-23T07:20:08.332Z,89.08
2016-11-23T07:21:07.940Z,87.98
2016-11-23T07:22:08.478Z,88.15
2016-11-23T07:23:08.102Z,88.17
2016-11-23T07:24:07.679Z,88.41
2016-11-23T07:25:08.197Z,88.04
2016-11-23T07:26:07.796Z,89.12
2016-11-23T07:27:08.421Z,88.02
2016-11-23T07:28:08.032Z,87.44
2016-11-23T07:29:08.356Z,88.42
2016-11-23T07:30:07.952Z,88.53
2016-11-23T07:31:07.510Z,88.35
2016-11-23T07:32:08.017Z,88.05
2016-11-23T07:33:07.511Z,88.77
2016-11-23T07:34:08.039Z,88.20
2016-11-23T07:35:07.842Z,89.62
2016-11-23T07:36:08.591Z,90.69
2016-11-23T07:37:08.083Z,91.34
2016-11-23T07:38:07.716Z,90.99
2016-11-23T07:39:08.271Z,91.70
2016-11-23T07:40:07.751Z,91.50
2016-11-23T07:41:08.325Z,91.19
2016-11-23T07:42:07.774Z,91.13
2016-11-23T07:43:08.231Z,90.58
2016-11-23T07:44:08.002Z,90.54
2016-11-23T07:45:08.596Z,90.47
2016-11-23T07:46:08.178Z,90.19
2016-11-23T07:47:07.804Z,89.84
2016-11-23T07:48:14.901Z,89.12
2016-11-23T07:49:08.440Z,88.58
2016-11-23T07:50:08.302Z,89.24
2016-11-23T07:51:08.138Z,88.47
2016-11-23T07:52:08.858Z,88.49
2016-11-23T07:53:08.397Z,88.27
2016-11-23T07:54:08.366Z,87.67
2016-11-23T07:55:07.857Z,87.94
2016-11-23T07:56:08.407Z,87.71
2016-11-23T07:57:07.914Z,87.81
2016-11-23T07:58:08.624Z,88.62
2016-11-23T07:59:08.182Z,88.29
2016-11-23T08:00:07.929Z,88.81
2016-11-23T08:01:08.452Z,88.72
2016-11-23T08:02:07.912Z,89.01
2016-11-23T08:03:08.472Z,88.87
2016-11-23T08:04:08.465Z,87.83
2016-11-23T08:05:08.027Z,88.32
2016-11-23T08:06:07.579Z,87.97
2016-11-23T08:07:09.050Z,87.94
2016-11-23T08:08:07.607Z,88.81
2016-11-23T08:09:08.261Z,88.62
2016-11-23T08:10:07.990Z,88.46
2016-11-23T08:11:07.492Z,89.70
2016-11-23T08:12:08.133Z,88.56
2016-11-23T08:13:07.663Z,88.36
2016-11-23T08:14:08.313Z,87.59
2016-11-23T08:15:07.820Z,88.15
2016-11-23T08:16:08.338Z,88.36
2016-11-23T08:17:08.375Z,88.40
2016-11-23T08:18:07.839Z,88.37
2016-11-23T08:19:08.424Z,88.77
2016-11-23T08:20:07.912Z,88.88
2016-11-23T08:21:08.438Z,89.41
2016-11-23T08:22:08.965Z,89.20
2016-11-23T08:23:07.791Z,88.38
2016-11-23T08:24:08.581Z,88.01
2016-11-23T08:25:08.125Z,87.96
2016-11-23T08:26:07.591Z,87.52
2016-11-23T08:27:08.110Z,87.06
2016-11-23T08:28:07.810Z,86.54
2016-11-23T08:29:08.745Z,86.21
2016-11-23T08:30:08.353Z,86.61
2016-11-23T08:31:09.221Z,86.46
2016-11-23T08:32:07.685Z,86.95
2016-11-23T08:33:08.262Z,87.37
2016-11-23T08:34:07.927Z,87.11
2016-11-23T08:35:08.531Z,86.30
2016-11-23T08:36:08.050Z,86.57
2016-11-23T08:37:07.609Z,86.17
2016-11-23T08:38:08.247Z,86.67
2016-11-23T08:39:07.782Z,87.32
2016-11-23T08:40:08.358Z,87.44
2016-11-23T08:41:07.494Z,86.63
2016-11-23T08:42:07.999Z,85.92
2016-11-23T08:43:07.618Z,85.21
2016-11-23T08:44:08.133Z,87.72
2016-11-23T08:45:07.712Z,86.39
2016-11-23T08:46:08.206Z,85.37
2016-11-23T08:47:07.873Z,85.54
2016-11-23T08:48:08.659Z,85.41
2016-11-23T08:49:08.388Z,84.74
2016-11-23T08:50:08.138Z,84.92
2016-11-23T08:51:07.640Z,84.20
2016-11-23T08:52:09.105Z,83.46
2016-11-23T08:53:07.688Z,84.28
2016-11-23T08:54:08.199Z,82.94
2016-11-23T08:55:07.761Z,83.79
2016-11-23T08:56:08.275Z,82.75
2016-11-23T08:57:07.768Z,82.56
2016-11-23T08:58:08.579Z,81.82
2016-11-23T08:59:08.209Z,81.92
2016-11-23T09:00:07.690Z,81.45
2016-11-23T09:01:07.961Z,81.39
2016-11-23T09:02:07.701Z,83.07
2016-11-23T09:03:08.321Z,81.78
2016-11-23T09:04:07.855Z,82.88
2016-11-23T09:05:08.333Z,82.63
2016-11-23T09:06:07.828Z,83.38
2016-11-23T09:07:09.416Z,82.65
2016-11-23T09:08:07.924Z,82.21
2016-11-23T09:09:08.520Z,81.65
2016-11-23T09:10:08.389Z,80.74
2016-11-23T09:11:07.948Z,80.65
2016-11-23T09:12:07.776Z,80.13
2016-11-23T09:13:08.263Z,80.28
2016-11-23T09:14:07.878Z,80.36
2016-11-23T09:15:08.451Z,81.74
2016-11-23T09:16:07.962Z,81.22
2016-11-23T09:17:07.711Z,81.42
2016-11-23T09:18:08.231Z,80.58
2016-11-23T09:19:07.761Z,80.88
2016-11-23T09:20:08.406Z,79.78
2016-11-23T09:21:08.251Z,82.19
2016-11-23T09:22:08.084Z,80.54
2016-11-23T09:23:07.629Z,79.93
2016-11-23T09:24:08.196Z,78.82
2016-11-23T09:25:07.936Z,78.64
2016-11-23T09:26:07.532Z,78.48
2016-11-23T09:27:14.732Z,79.56
2016-11-23T09:28:08.389Z,79.36
2016-11-23T09:29:07.872Z,79.62
2016-11-23T09:30:08.420Z,81.09
2016-11-23T09:31:07.951Z,79.56
2016-11-23T09:32:07.574Z,80.15
2016-11-23T09:33:08.114Z,80.01
2016-11-23T09:34:07.601Z,79.92
2016-11-23T09:35:08.129Z,80.30
2016-11-23T09:36:07.971Z,79.54
2016-11-23T09:37:08.001Z,79.43
2016-11-23T09:38:07.577Z,79.04
2016-11-23T09:39:08.158Z,79.13
2016-11-23T09:40:07.667Z,78.49
2016-11-23T09:41:08.225Z,77.83
2016-11-23T09:42:07.798Z,78.06
2016-11-23T09:43:08.290Z,77.99
2016-11-23T09:44:08.069Z,78.06
2016-11-23T09:45:07.592Z,77.98
2016-11-23T09:46:08.229Z,78.05
2016-11-23T09:47:07.834Z,77.87
2016-11-23T09:48:08.332Z,77.79
2016-11-23T09:49:07.821Z,77.61
2016-11-23T09:50:08.571Z,77.29
2016-11-23T09:51:08.095Z,77.21
2016-11-23T09:52:07.859Z,77.32
2016-11-23T09:53:08.360Z,77.03
2016-11-23T09:54:08.192Z,76.91
2016-11-23T09:55:07.688Z,77.34
2016-11-23T09:56:08.150Z,77.65
2016-11-23T09:57:08.210Z,77.27
2016-11-23T09:58:07.890Z,76.92
2016-11-23T09:59:08.576Z,76.97
2016-11-23T10:00:08.041Z,77.02
2016-11-23T10:01:08.242Z,76.79
2016-11-23T10:02:07.687Z,76.55
2016-11-23T10:03:08.254Z,76.25
2016-11-23T10:04:07.739Z,76.02
2016-11-23T10:05:08.274Z,76.16
2016-11-23T10:06:08.132Z,76.31
2016-11-23T10:07:08.043Z,76.23
2016-11-23T10:08:07.643Z,76.07
2016-11-23T10:09:08.402Z,75.98
2016-11-23T10:10:07.862Z,75.90
2016-11-23T10:11:08.512Z,75.70
2016-11-23T10:12:08.154Z,75.84
2016-11-23T10:13:07.692Z,75.56
2016-11-23T10:14:08.240Z,75.38
2016-11-23T10:15:07.808Z,75.51
2016-11-23T10:16:08.600Z,75.39
2016-11-23T10:17:08.260Z,75.50
2016-11-23T10:18:07.829Z,75.45
2016-11-23T10:19:08.450Z,75.69
2016-11-23T10:20:07.935Z,75.37
2016-11-23T10:21:08.509Z,75.09
2016-11-23T10:22:08.153Z,75.52
2016-11-23T10:23:07.717Z,75.52
2016-11-23T10:24:08.564Z,75.87
2016-11-23T10:25:08.074Z,76.06
2016-11-23T10:26:07.569Z,76.05
2016-11-23T10:27:08.179Z,75.97
2016-11-23T10:28:07.929Z,75.78
2016-11-23T10:29:07.489Z,75.45
2016-11-23T10:30:08.107Z,75.65
2016-11-23T10:31:07.584Z,75.53
2016-11-23T10:32:08.168Z,75.66
2016-11-23T10:33:07.683Z,75.57
2016-11-23T10:34:07.972Z,75.41
2016-11-23T10:35:07.939Z,75.25
2016-11-23T10:36:07.623Z,75.08
2016-11-23T10:37:08.907Z,75.62
2016-11-23T10:38:08.629Z,75.41
2016-11-23T10:39:08.165Z,75.59
2016-11-23T10:40:07.763Z,75.39
2016-11-23T10:41:07.739Z,75.52
2016-11-23T10:42:08.323Z,75.76
2016-11-23T10:43:07.972Z,75.89
2016-11-23T10:44:07.774Z,76.30
2016-11-23T10:45:08.243Z,76.14
2016-11-23T10:46:07.522Z,76.08
2016-11-23T10:47:08.149Z,76.22
2016-11-23T10:48:07.626Z,76.38
2016-11-23T10:49:23.199Z,76.52
2016-11-23T10:50:07.729Z,76.61
2016-11-23T10:51:08.307Z,77.17
2016-11-23T10:52:08.280Z,76.99
2016-11-23T10:53:07.845Z,76.96
2016-11-23T10:54:08.366Z,76.99
2016-11-23T10:55:07.896Z,77.20
2016-11-23T10:56:08.389Z,77.05
2016-11-23T10:57:07.855Z,77.19
2016-11-23T10:58:08.692Z,77.19
2016-11-23T10:59:08.246Z,77.27
2016-11-23T11:00:07.880Z,77.98
2016-11-23T11:01:08.409Z,79.23
2016-11-23T11:02:08.202Z,78.96
2016-11-23T11:03:07.841Z,78.68
2016-11-23T11:04:08.405Z,78.49
2016-11-23T11:05:08.004Z,78.67
2016-11-23T11:06:07.537Z,78.40
2016-11-23T11:07:08.902Z,78.46
2016-11-23T11:08:08.687Z,78.45
2016-11-23T11:09:08.609Z,78.31
2016-11-23T11:10:08.040Z,78.38
2016-11-23T11:11:08.273Z,78.25
2016-11-23T11:12:07.779Z,77.86
2016-11-23T11:13:08.246Z,77.83
2016-11-23T11:14:07.886Z,78.77
2016-11-23T11:15:08.440Z,78.86
2016-11-23T11:16:08.119Z,78.22
2016-11-23T11:17:07.900Z,77.54
2016-11-23T11:18:08.397Z,77.54
2016-11-23T11:19:08.057Z,76.88
2016-11-23T11:20:07.579Z,76.84
2016-11-23T11:21:21.542Z,77.16
2016-11-23T11:22:08.597Z,77.08
2016-11-23T11:23:08.275Z,77.06
2016-11-23T11:24:07.795Z,77.02
2016-11-23T11:25:08.480Z,76.47
2016-11-23T11:26:08.016Z,76.12
2016-11-23T11:27:07.663Z,75.94
2016-11-23T11:28:08.364Z,75.80
2016-11-23T11:29:08.056Z,75.37
2016-11-23T11:30:07.889Z,75.18
2016-11-23T11:31:08.452Z,75.94
2016-11-23T11:32:08.196Z,75.67
2016-11-23T11:33:07.838Z,75.67
2016-11-23T11:34:08.101Z,75.48
2016-11-23T11:35:07.623Z,75.49
2016-11-23T11:36:08.148Z,75.61
2016-11-23T11:37:08.317Z,75.65
2016-11-23T11:38:07.827Z,75.88
2016-11-23T11:39:08.403Z,76.35
2016-11-23T11:40:08.217Z,76.85
2016-11-23T11:41:07.774Z,76.74
2016-11-23T11:42:08.330Z,77.19
2016-11-23T11:43:07.856Z,77.13
2016-11-23T11:44:08.089Z,77.33
2016-11-23T11:45:07.691Z,77.26
2016-11-23T11:46:15.504Z,76.97
2016-11-23T11:47:08.353Z,76.78
2016-11-23T11:48:07.930Z,76.96
2016-11-23T11:49:08.554Z,77.07
2016-11-23T11:50:08.061Z,76.76
2016-11-23T11:51:07.643Z,76.67
2016-11-23T11:52:09.338Z,77.06
2016-11-23T11:53:07.907Z,76.99
2016-11-23T11:54:08.704Z,77.13
2016-11-23T11:55:08.262Z,77.26
2016-11-23T11:56:07.929Z,77.44
2016-11-23T11:57:07.801Z,77.67
2016-11-23T11:58:08.469Z,78.29
2016-11-23T11:59:07.999Z,78.41
2016-11-23T12:00:07.475Z,78.33
2016-11-23T12:01:08.004Z,78.19
2016-11-23T12:02:07.636Z,78.37
2016-11-23T12:03:08.177Z,79.43
2016-11-23T12:04:07.698Z,79.17
2016-11-23T12:05:08.258Z,79.32
2016-11-23T12:06:07.815Z,79.30
2016-11-23T12:07:08.347Z,79.64
2016-11-23T12:08:07.945Z,79.38
2016-11-23T12:09:07.510Z,79.35
2016-11-23T12:10:08.161Z,79.36
2016-11-23T12:11:07.667Z,79.65
2016-11-23T12:12:08.313Z,79.82
2016-11-23T12:13:07.898Z,79.51
2016-11-23T12:14:08.445Z,79.32
2016-11-23T12:15:07.992Z,79.51
2016-11-23T12:16:07.490Z,79.52
2016-11-23T12:17:08.261Z,79.49
2016-11-23T12:18:07.829Z,79.19
2016-11-23T12:19:08.390Z,78.81
2016-11-23T12:20:08.322Z,78.88
2016-11-23T12:21:07.781Z,78.80
2016-11-23T12:22:08.648Z,78.90
2016-11-23T12:23:08.187Z,78.62
2016-11-23T12:24:08.352Z,78.58
2016-11-23T12:25:07.795Z,78.53
2016-11-23T12:26:08.305Z,78.59
2016-11-23T12:27:07.947Z,78.76
2016-11-23T12:28:07.671Z,78.70
2016-11-23T12:29:08.224Z,78.37
2016-11-23T12:30:07.815Z,78.03
2016-11-23T12:31:08.303Z,78.43
2016-11-23T12:32:07.763Z,78.61
2016-11-23T12:33:08.411Z,79.09
2016-11-23T12:34:07.938Z,78.60
2016-11-23T12:35:07.597Z,78.16
2016-11-23T12:36:08.314Z,78.15
2016-11-23T12:37:07.937Z,78.21
2016-11-23T12:38:07.460Z,78.40
2016-11-23T12:39:07.947Z,77.89
2016-11-23T12:40:07.507Z,77.53
2016-11-23T12:41:08.258Z,77.66
2016-11-23T12:42:07.858Z,77.63
2016-11-23T12:43:08.522Z,77.63
2016-11-23T12:44:08.005Z,77.68
2016-11-23T12:45:07.643Z,77.92
2016-11-23T12:46:08.202Z,77.85
2016-11-23T12:47:07.853Z,77.70
2016-11-23T12:48:08.416Z,77.44
2016-11-23T12:49:07.963Z,77.60
2016-11-23T12:50:07.685Z,77.90
2016-11-23T12:51:08.302Z,77.52
2016-11-23T12:52:07.875Z,77.71